Airfield :







YOU CAN JOIN US ON...

 
LOGIN :

Register | Disclaimer

   EN    FR    IT 

 









Legend :    VFR   Marginal VFR   IFR   Intensive IFR   Very Intensive IFR
Visi :
Ceiling :
>= 8 km
>= 3000ft
5 to 8 km
1000 to 3000 ft
1500m to 5 km
500 to 1000 ft
800 to 1500m
200 to 500 ft
< 800m
< 200 ft
Symbols :   Thunderstorms  Fog  Heavy snow  Heavy precipitations  Wind > 20 kt






- Airport Elevation : 92 ft
- IATA code : YZX


CYZX - CFB Greenwood

CURRENT METAR :
  • 162100Z 32014G20KT 15SM FEW045 M02/M10 A3030 RMK SC2 SLP263

EXPIRED METARs :
  • 162000Z 30013G27KT 15SM BKN045 M02/M09 A3028 RMK SC6 SLP255
  • 161900Z 31018G27KT 15SM SCT040 M02/M09 A3027 RMK SC3 SLP251

TAF TAF CYZX
Valid from the 16 at 18:00 until the 17 at 18:00 UTC


161730Z 1618/1718 30018G30KT P6SM FEW030
BECMG 1622/1624 30010G20KT
BECMG 1704/1706 32008KT
FM171000 VRB03KT P6SM FEW020 RMK NXT FCST BY 170000Z



MET'MAP, your aeronautical weather chart ! - Copyright ORBIFLY December 2007 - Disclaimer

ORBIFLY MET'MAP TEAM :

Programming & Development : Alexandra Zaïnal
Concept & Development : Baudouin d'Aumeries
Co-Development & Prog : Marc-Olivier Méhu
Technical & hardware support : Manuel Goepfert

Contact : metmap@orbifly.com




SOURCES & CREDITS :

   NOAA